Time;durP1;ratioP1;P1;durP2;ratioP2;P2;SDS_P1;SDS_P2;PMS_P1;PMS_P2;Temp;Humidity;BMP_temperature;BMP_pressure;BME280_temperature;BME280_humidity;BME280_pressure;Samples;Min_cycle;Max_cycle;Signal;HPM_P1;HPM_P2
2024/01/15 00:01:50;;;;;;;45.40;18.40;;;3.80;99.90;;;;;;7283372;19;20193;-81
2024/01/15 00:04:16;;;;;;;49.57;18.90;;;3.90;99.90;;;;;;7285289;19;20190;-81
2024/01/15 00:06:41;;;;;;;43.53;17.60;;;4.00;99.90;;;;;;7283730;19;20186;-82
2024/01/15 00:09:07;;;;;;;43.93;17.17;;;4.00;99.90;;;;;;7295798;19;20210;-82
2024/01/15 00:11:33;;;;;;;45.63;17.83;;;4.10;99.90;;;;;;7304465;19;20189;-81
2024/01/15 00:13:59;;;;;;;42.90;17.03;;;4.10;99.90;;;;;;7285468;19;20205;-82
2024/01/15 00:16:24;;;;;;;41.80;16.63;;;4.10;99.90;;;;;;7284373;19;20265;-82
2024/01/15 00:18:50;;;;;;;34.37;15.07;;;4.10;99.90;;;;;;7287196;19;20190;-81
2024/01/15 00:21:16;;;;;;;34.40;14.03;;;4.20;99.90;;;;;;7285032;19;20192;-82
2024/01/15 00:23:45;;;;;;;31.10;13.47;;;4.00;99.90;;;;;;7283450;19;20197;-82
2024/01/15 00:26:11;;;;;;;33.50;13.33;;;4.00;99.90;;;;;;7283670;19;20192;-82
2024/01/15 00:28:37;;;;;;;29.10;12.30;;;4.00;99.90;;;;;;7303115;19;20191;-82
2024/01/15 00:31:06;;;;;;;31.67;12.57;;;4.00;99.90;;;;;;7284746;19;20188;-82
2024/01/15 00:33:32;;;;;;;26.83;12.53;;;4.00;99.90;;;;;;7284796;19;20184;-82
2024/01/15 00:35:58;;;;;;;27.07;11.67;;;3.90;99.90;;;;;;7285423;19;20180;-81
2024/01/15 00:38:24;;;;;;;33.07;12.83;;;3.90;99.90;;;;;;7284091;19;20194;-82
2024/01/15 00:40:50;;;;;;;29.80;13.20;;;3.80;99.90;;;;;;7283754;19;20187;-82
2024/01/15 00:43:18;;;;;;;28.33;13.40;;;3.80;99.90;;;;;;7281670;19;20193;-81
2024/01/15 00:45:43;;;;;;;31.23;13.67;;;3.60;99.90;;;;;;7282863;19;20182;-81
2024/01/15 00:48:09;;;;;;;31.60;13.87;;;3.60;99.90;;;;;;7284238;19;20181;-82
2024/01/15 00:50:35;;;;;;;36.73;15.20;;;3.60;99.90;;;;;;7305905;19;20198;-81
2024/01/15 00:53:01;;;;;;;34.87;15.13;;;3.60;99.90;;;;;;7283311;19;20189;-82
2024/01/15 00:55:29;;;;;;;37.83;16.43;;;3.60;99.90;;;;;;7285702;19;20191;-82
2024/01/15 00:57:55;;;;;;;32.43;14.43;;;3.50;99.90;;;;;;7281731;19;20225;-82
2024/01/15 01:00:21;;;;;;;34.20;15.33;;;3.60;99.90;;;;;;7283001;19;20208;-82
2024/01/15 01:02:46;;;;;;;34.73;15.27;;;3.70;99.90;;;;;;7284716;19;20474;-82
2024/01/15 01:05:12;;;;;;;34.30;15.47;;;3.80;99.90;;;;;;7282402;19;20190;-82
2024/01/15 01:07:38;;;;;;;39.97;16.00;;;3.90;99.90;;;;;;7298797;19;20192;-81
2024/01/15 01:10:04;;;;;;;38.63;16.63;;;3.90;99.90;;;;;;7300523;19;20186;-82
2024/01/15 01:12:30;;;;;;;36.13;15.63;;;4.10;99.90;;;;;;7281466;19;20260;-82
2024/01/15 01:14:56;;;;;;;34.50;15.40;;;4.10;99.90;;;;;;7281086;19;20187;-82
2024/01/15 01:17:22;;;;;;;33.17;15.53;;;4.20;99.90;;;;;;7280671;19;20192;-82
2024/01/15 01:19:49;;;;;;;34.30;15.20;;;4.30;99.90;;;;;;7279257;19;20184;-84
2024/01/15 01:22:15;;;;;;;34.73;14.80;;;4.30;99.90;;;;;;7280957;19;20255;-83
2024/01/15 01:24:40;;;;;;;36.37;14.67;;;4.20;99.90;;;;;;7280762;19;20202;-82
2024/01/15 01:27:06;;;;;;;33.77;15.10;;;4.20;99.90;;;;;;7310284;19;20203;-82
2024/01/15 01:29:32;;;;;;;32.27;13.80;;;4.10;99.90;;;;;;7288751;19;20244;-82
2024/01/15 01:31:58;;;;;;;34.30;13.20;;;4.10;99.90;;;;;;7287907;19;20229;-81
2024/01/15 01:34:24;;;;;;;31.03;12.53;;;3.90;99.90;;;;;;7289264;19;20568;-82
2024/01/15 01:36:50;;;;;;;29.63;12.30;;;4.00;99.90;;;;;;7289614;19;20200;-83
2024/01/15 01:39:16;;;;;;;29.50;12.97;;;4.00;99.90;;;;;;7289049;19;20181;-82
2024/01/15 01:41:42;;;;;;;30.27;12.20;;;4.00;99.90;;;;;;7289258;19;20537;-81
2024/01/15 01:44:08;;;;;;;28.20;12.57;;;4.10;99.90;;;;;;7307480;19;20252;-82
2024/01/15 01:46:39;;;;;;;29.47;12.30;;;4.20;99.90;;;;;;7301371;19;20212;-81
2024/01/15 01:49:06;;;;;;;32.70;12.40;;;4.10;99.90;;;;;;7288759;19;20198;-82
2024/01/15 01:51:33;;;;;;;28.03;12.00;;;4.10;99.90;;;;;;7288264;19;20187;-82
2024/01/15 01:54:00;;;;;;;24.70;11.37;;;4.10;99.90;;;;;;7287285;19;20178;-82
2024/01/15 01:56:26;;;;;;;27.73;11.57;;;4.20;99.90;;;;;;7287626;19;20187;-82
2024/01/15 01:58:52;;;;;;;28.50;12.30;;;4.20;99.90;;;;;;7288106;19;20193;-82
2024/01/15 02:01:19;;;;;;;27.70;12.80;;;4.10;99.90;;;;;;7287586;19;20208;-83
2024/01/15 02:03:45;;;;;;;28.77;13.20;;;4.10;99.90;;;;;;7287146;19;20191;-82
2024/01/15 02:06:11;;;;;;;27.70;13.20;;;4.10;99.90;;;;;;7286059;19;20203;-82
2024/01/15 02:08:37;;;;;;;29.83;12.77;;;3.90;99.90;;;;;;7308605;19;20660;-83
2024/01/15 02:11:03;;;;;;;26.53;12.53;;;3.80;99.90;;;;;;7288814;19;20201;-82
2024/01/15 02:13:29;;;;;;;27.17;13.10;;;3.90;99.90;;;;;;7287752;19;20178;-82
2024/01/15 02:15:55;;;;;;;29.00;12.83;;;4.00;99.90;;;;;;7288375;19;20837;-82
2024/01/15 02:18:21;;;;;;;36.80;14.70;;;4.10;99.90;;;;;;7287732;19;20188;-82
2024/01/15 02:20:47;;;;;;;31.50;14.27;;;4.10;99.90;;;;;;7286603;19;20186;-83
2024/01/15 02:23:14;;;;;;;40.00;15.20;;;4.20;99.90;;;;;;7288095;19;20270;-82
2024/01/15 02:25:45;;;;;;;32.73;13.57;;;4.10;99.90;;;;;;7285987;19;20245;-83
2024/01/15 02:28:12;;;;;;;28.83;13.43;;;4.10;99.90;;;;;;7286354;19;20191;-82
2024/01/15 02:30:40;;;;;;;33.03;13.80;;;4.10;99.90;;;;;;7302712;19;20200;-80
2024/01/15 02:33:10;;;;;;;34.97;14.60;;;4.00;99.90;;;;;;7308371;19;20872;-80
2024/01/15 02:35:36;;;;;;;38.13;15.57;;;4.00;99.90;;;;;;7288400;19;20686;-81
2024/01/15 02:38:02;;;;;;;35.33;14.83;;;4.00;99.90;;;;;;7285949;19;20179;-81
2024/01/15 02:40:29;;;;;;;35.57;16.10;;;4.00;99.90;;;;;;7285316;19;20195;-81
2024/01/15 02:42:55;;;;;;;34.40;15.40;;;3.80;99.90;;;;;;7288106;19;20189;-81
2024/01/15 02:45:22;;;;;;;36.77;15.87;;;3.80;99.90;;;;;;7287895;19;20536;-81
2024/01/15 02:47:47;;;;;;;36.43;16.17;;;3.90;99.90;;;;;;7287348;19;20194;-82
2024/01/15 02:50:14;;;;;;;33.60;15.73;;;3.90;99.90;;;;;;7286421;19;20187;-81
2024/01/15 02:52:40;;;;;;;40.33;17.17;;;3.80;99.90;;;;;;7292697;19;20194;-81
2024/01/15 02:55:06;;;;;;;42.27;17.83;;;3.70;99.90;;;;;;7308282;19;20193;-81
2024/01/15 02:57:31;;;;;;;44.93;18.03;;;3.60;99.90;;;;;;7288107;19;20212;-81
2024/01/15 02:59:57;;;;;;;43.47;19.13;;;3.80;99.90;;;;;;7286213;19;21017;-82
2024/01/15 03:02:23;;;;;;;43.40;20.50;;;3.70;99.90;;;;;;7285898;19;20195;-81
2024/01/15 03:04:49;;;;;;;42.27;18.03;;;3.80;99.90;;;;;;7285656;19;20190;-81
2024/01/15 03:07:15;;;;;;;38.87;18.53;;;3.90;99.90;;;;;;7285142;19;20183;-81
2024/01/15 03:09:41;;;;;;;46.37;19.37;;;3.90;99.90;;;;;;7287441;19;20204;-82
2024/01/15 03:12:07;;;;;;;44.27;20.03;;;3.90;99.90;;;;;;7306735;19;20177;-81
2024/01/15 03:14:32;;;;;;;41.23;19.20;;;4.00;99.90;;;;;;7285731;19;20184;-81
2024/01/15 03:16:58;;;;;;;44.17;19.57;;;4.00;99.90;;;;;;7286537;19;20560;-81
2024/01/15 03:19:24;;;;;;;42.77;18.47;;;4.00;99.90;;;;;;7286156;19;20200;-81
2024/01/15 03:21:49;;;;;;;42.23;18.37;;;4.00;99.90;;;;;;7287320;19;20198;-81
2024/01/15 03:24:15;;;;;;;41.30;19.17;;;4.00;99.90;;;;;;7285430;19;20224;-81
2024/01/15 03:26:41;;;;;;;44.80;19.83;;;4.10;99.90;;;;;;7286347;19;20198;-81
2024/01/15 03:29:07;;;;;;;46.07;19.97;;;4.00;99.90;;;;;;7307603;19;20567;-81
2024/01/15 03:31:33;;;;;;;44.70;20.57;;;4.00;99.90;;;;;;7285649;19;21021;-81
2024/01/15 03:33:59;;;;;;;44.40;19.57;;;4.10;99.90;;;;;;7287314;19;20192;-81
2024/01/15 03:36:24;;;;;;;43.60;19.10;;;4.10;99.90;;;;;;7285457;19;20183;-81
2024/01/15 03:38:50;;;;;;;43.63;20.27;;;4.10;99.90;;;;;;7285959;19;20189;-81
2024/01/15 03:41:16;;;;;;;43.67;19.97;;;3.80;99.90;;;;;;7285179;19;20211;-81
2024/01/15 03:43:42;;;;;;;46.83;20.87;;;3.80;99.90;;;;;;7286732;19;20194;-81
2024/01/15 03:46:07;;;;;;;45.37;19.87;;;3.70;99.90;;;;;;7309138;19;20214;-82
2024/01/15 03:48:33;;;;;;;43.43;19.43;;;3.70;99.90;;;;;;7284054;19;20214;-81
2024/01/15 03:50:59;;;;;;;48.67;21.37;;;3.80;99.90;;;;;;7286107;19;20192;-81
2024/01/15 03:53:25;;;;;;;49.93;21.07;;;3.90;99.90;;;;;;7284791;19;20190;-81
2024/01/15 03:55:52;;;;;;;49.33;20.90;;;3.90;99.90;;;;;;7286690;19;20212;-81
2024/01/15 03:58:18;;;;;;;47.40;22.43;;;4.00;99.90;;;;;;7285551;19;20188;-81
2024/01/15 04:00:44;;;;;;;45.20;21.50;;;3.90;99.90;;;;;;7283841;19;20188;-81
2024/01/15 04:03:10;;;;;;;45.27;20.73;;;3.90;99.90;;;;;;7289505;19;20483;-82
2024/01/15 04:05:35;;;;;;;44.60;20.03;;;3.90;99.90;;;;;;7305844;19;20297;-82
2024/01/15 04:08:01;;;;;;;46.37;20.50;;;4.00;99.90;;;;;;7285281;19;20194;-81
2024/01/15 04:10:27;;;;;;;44.33;19.93;;;4.10;99.90;;;;;;7284451;19;20634;-82
2024/01/15 04:12:53;;;;;;;46.50;20.43;;;4.00;99.90;;;;;;7286288;19;20188;-82
2024/01/15 04:15:18;;;;;;;43.60;20.23;;;4.10;99.90;;;;;;7286554;19;20196;-82
2024/01/15 04:17:44;;;;;;;42.90;18.50;;;4.10;99.90;;;;;;7284068;19;20203;-81
2024/01/15 04:20:10;;;;;;;42.57;18.77;;;4.10;99.90;;;;;;7288675;19;20270;-82
2024/01/15 04:22:36;;;;;;;43.07;18.73;;;4.20;99.90;;;;;;7308443;19;20278;-82
2024/01/15 04:25:04;;;;;;;42.93;17.93;;;4.20;99.90;;;;;;7284780;19;20627;-82
2024/01/15 04:27:29;;;;;;;39.73;18.17;;;4.20;99.90;;;;;;7283736;19;20194;-82
2024/01/15 04:29:55;;;;;;;38.00;16.77;;;4.20;99.90;;;;;;7284378;19;20227;-81
2024/01/15 04:32:21;;;;;;;37.90;17.50;;;4.30;99.90;;;;;;7281605;19;20666;-81
2024/01/15 04:34:46;;;;;;;34.47;15.07;;;4.40;99.90;;;;;;7284025;19;20902;-81
2024/01/15 04:37:13;;;;;;;33.27;14.93;;;4.20;99.90;;;;;;7285210;19;20218;-81
2024/01/15 04:39:39;;;;;;;30.40;13.70;;;4.20;99.90;;;;;;7293543;19;21039;-81
2024/01/15 04:42:05;;;;;;;28.80;11.97;;;4.20;99.90;;;;;;7301417;19;20193;-82
2024/01/15 04:44:30;;;;;;;25.20;12.30;;;4.10;99.90;;;;;;7284357;19;20198;-81
2024/01/15 04:46:56;;;;;;;25.77;11.23;;;3.90;99.90;;;;;;7283824;19;20195;-80
2024/01/15 04:49:22;;;;;;;25.43;11.93;;;3.80;99.90;;;;;;7283856;19;20194;-81
2024/01/15 04:51:48;;;;;;;26.80;12.10;;;3.80;99.90;;;;;;7282201;19;20298;-81
2024/01/15 04:54:17;;;;;;;24.60;11.43;;;3.80;99.90;;;;;;7283090;19;20778;-82
2024/01/15 04:56:44;;;;;;;27.23;11.80;;;3.90;99.90;;;;;;7284802;19;20194;-82
2024/01/15 04:59:10;;;;;;;28.33;11.73;;;3.90;99.90;;;;;;7285524;19;20194;-81
2024/01/15 05:01:36;;;;;;;24.40;12.03;;;3.80;99.90;;;;;;7303457;19;20197;-81
2024/01/15 05:04:02;;;;;;;28.40;12.70;;;3.90;99.90;;;;;;7282275;19;20255;-82
2024/01/15 05:06:28;;;;;;;28.03;12.87;;;3.80;99.90;;;;;;7282816;19;20583;-82
2024/01/15 05:08:53;;;;;;;31.53;13.97;;;3.80;99.90;;;;;;7283652;19;20191;-81
2024/01/15 05:11:19;;;;;;;35.77;15.33;;;3.60;99.90;;;;;;7283646;19;20263;-81
2024/01/15 05:13:45;;;;;;;30.00;14.73;;;3.70;99.90;;;;;;7282450;19;20285;-81
2024/01/15 05:16:10;;;;;;;30.83;15.30;;;3.80;99.90;;;;;;7283353;19;20189;-81
2024/01/15 05:18:39;;;;;;;35.40;16.87;;;3.80;99.90;;;;;;7304421;19;20652;-81
2024/01/15 05:21:05;;;;;;;36.40;17.10;;;3.90;99.90;;;;;;7282827;19;20186;-82
2024/01/15 05:23:34;;;;;;;34.03;16.87;;;4.00;99.90;;;;;;7280288;19;20215;-82
2024/01/15 05:26:00;;;;;;;34.70;17.87;;;4.00;99.90;;;;;;7282926;19;20651;-82
2024/01/15 05:28:26;;;;;;;36.50;18.80;;;3.90;99.90;;;;;;7283761;19;20195;-81
2024/01/15 05:30:52;;;;;;;34.97;17.27;;;4.00;99.90;;;;;;7280879;19;20192;-81
2024/01/15 05:33:18;;;;;;;39.13;17.00;;;4.10;99.90;;;;;;7283108;19;20776;-81
2024/01/15 05:35:44;;;;;;;37.30;17.73;;;4.10;99.90;;;;;;7283122;19;20188;-82
2024/01/15 05:38:09;;;;;;;33.83;18.37;;;4.20;99.90;;;;;;7291638;19;20178;-81
2024/01/15 05:40:35;;;;;;;38.43;19.10;;;4.20;99.90;;;;;;7300426;19;20181;-81
2024/01/15 05:43:01;;;;;;;38.23;18.20;;;4.10;99.90;;;;;;7283251;19;20204;-81
2024/01/15 05:45:27;;;;;;;37.23;17.97;;;4.20;99.90;;;;;;7281894;19;20657;-81
2024/01/15 05:47:52;;;;;;;31.67;17.33;;;4.20;99.90;;;;;;7282167;19;20184;-82
2024/01/15 05:50:18;;;;;;;33.17;17.23;;;4.30;99.90;;;;;;7282080;19;20562;-79
2024/01/15 05:52:44;;;;;;;33.67;16.37;;;4.30;99.90;;;;;;7281038;19;20342;-78
2024/01/15 05:55:11;;;;;;;32.80;16.40;;;4.30;99.90;;;;;;7281990;19;20686;-81
2024/01/15 05:57:37;;;;;;;33.90;17.23;;;4.30;99.90;;;;;;7304187;19;20182;-81
2024/01/15 06:00:04;;;;;;;35.17;18.27;;;4.30;99.90;;;;;;7281053;19;20194;-80
2024/01/15 06:02:31;;;;;;;29.50;15.47;;;4.30;99.90;;;;;;7283099;19;20186;-81
2024/01/15 06:04:57;;;;;;;30.73;15.77;;;4.30;99.90;;;;;;7280122;19;20205;-81
2024/01/15 06:07:23;;;;;;;29.13;15.57;;;4.40;99.90;;;;;;7282398;19;20208;-81
2024/01/15 06:09:49;;;;;;;27.40;15.03;;;4.40;99.90;;;;;;7280200;19;20327;-82
2024/01/15 06:12:15;;;;;;;27.57;15.17;;;4.30;99.90;;;;;;7287309;19;20192;-81
2024/01/15 06:14:41;;;;;;;33.17;15.00;;;4.30;99.90;;;;;;7290368;19;20263;-82
2024/01/15 06:17:07;;;;;;;31.77;15.70;;;4.40;99.90;;;;;;7310757;19;20185;-81
2024/01/15 06:19:32;;;;;;;31.23;16.03;;;4.40;99.90;;;;;;7287306;19;20196;-83
2024/01/15 06:21:58;;;;;;;34.97;18.70;;;4.30;99.90;;;;;;7288259;19;20209;-79
2024/01/15 06:24:24;;;;;;;33.90;17.13;;;4.20;99.90;;;;;;7287212;19;20658;-80
2024/01/15 06:26:50;;;;;;;29.50;16.47;;;4.10;99.90;;;;;;7285596;19;20199;-81
2024/01/15 06:29:16;;;;;;;29.63;17.63;;;4.10;99.90;;;;;;7286169;19;20723;-81
2024/01/15 06:31:42;;;;;;;34.87;18.40;;;4.00;99.90;;;;;;7287488;19;20678;-81
2024/01/15 06:34:09;;;;;;;34.17;18.50;;;4.00;99.90;;;;;;7307439;19;20262;-81
2024/01/15 06:36:34;;;;;;;35.03;16.87;;;4.00;99.90;;;;;;7286708;19;20687;-81
2024/01/15 06:39:00;;;;;;;29.83;15.93;;;4.10;99.90;;;;;;7285277;19;20940;-81
2024/01/15 06:41:26;;;;;;;29.83;15.30;;;4.00;99.90;;;;;;7282998;19;20650;-82
2024/01/15 06:43:52;;;;;;;26.07;13.20;;;4.00;99.90;;;;;;7282877;19;20275;-80
2024/01/15 06:46:23;;;;;;;22.53;13.17;;;4.00;99.90;;;;;;7287291;19;20603;-82
2024/01/15 06:48:49;;;;;;;22.23;11.97;;;3.90;99.90;;;;;;7286886;19;20203;-81
2024/01/15 06:51:15;;;;;;;20.57;9.53;;;4.00;99.90;;;;;;7281555;19;20191;-82
2024/01/15 06:53:41;;;;;;;18.00;9.60;;;3.90;99.90;;;;;;7280613;19;20192;-82
2024/01/15 06:56:08;;;;;;;20.10;9.20;;;3.80;99.90;;;;;;7305845;19;20202;-83
2024/01/15 06:58:34;;;;;;;17.07;8.83;;;3.70;99.90;;;;;;7284200;19;20196;-83
2024/01/15 07:01:00;;;;;;;18.10;8.57;;;3.60;99.90;;;;;;7283657;19;20297;-83
2024/01/15 07:03:25;;;;;;;19.33;8.80;;;3.50;99.90;;;;;;7282756;19;20197;-83
2024/01/15 07:05:53;;;;;;;20.13;8.90;;;3.60;99.90;;;;;;7284985;19;20190;-83
2024/01/15 07:08:19;;;;;;;19.83;8.57;;;3.60;99.90;;;;;;7286050;19;20193;-84
2024/01/15 07:10:45;;;;;;;17.83;8.50;;;3.50;99.90;;;;;;7284703;19;20185;-83
2024/01/15 07:13:10;;;;;;;22.07;10.13;;;3.40;99.90;;;;;;7287786;19;20274;-83
2024/01/15 07:15:37;;;;;;;25.00;11.57;;;3.40;99.90;;;;;;7308228;19;20190;-83
2024/01/15 07:18:03;;;;;;;25.40;12.33;;;3.40;99.90;;;;;;7286470;19;20203;-83
2024/01/15 07:20:29;;;;;;;25.37;12.63;;;3.30;99.90;;;;;;7288520;19;20209;-83
2024/01/15 07:22:55;;;;;;;28.13;13.57;;;3.30;99.90;;;;;;7285623;19;20227;-84
2024/01/15 07:25:20;;;;;;;26.30;12.87;;;3.30;99.90;;;;;;7284240;19;20194;-83
2024/01/15 07:27:46;;;;;;;27.77;13.80;;;3.30;99.90;;;;;;7283426;19;20195;-83
2024/01/15 07:30:13;;;;;;;24.33;12.97;;;3.20;99.90;;;;;;7285453;19;20662;-82
2024/01/15 07:32:40;;;;;;;22.03;10.70;;;3.10;99.90;;;;;;7305326;19;20190;-81
2024/01/15 07:35:06;;;;;;;25.20;11.20;;;3.10;99.90;;;;;;7307021;19;20190;-83
2024/01/15 07:37:33;;;;;;;22.87;9.60;;;3.10;99.90;;;;;;7286022;19;20563;-83
2024/01/15 07:40:00;;;;;;;23.73;9.60;;;3.20;99.90;;;;;;7285539;19;20189;-82
2024/01/15 07:42:25;;;;;;;22.70;8.40;;;3.20;99.90;;;;;;7286336;19;20185;-83
2024/01/15 07:44:51;;;;;;;17.63;8.20;;;3.20;99.90;;;;;;7285727;19;20543;-82
2024/01/15 07:47:17;;;;;;;16.97;7.50;;;3.20;99.90;;;;;;7285580;19;20532;-83
2024/01/15 07:49:43;;;;;;;18.43;7.10;;;3.20;99.90;;;;;;7286884;19;20192;-82
2024/01/15 07:52:10;;;;;;;15.03;6.67;;;3.20;99.90;;;;;;7305195;19;20261;-82
2024/01/15 07:54:35;;;;;;;17.20;5.90;;;3.00;99.90;;;;;;7300535;19;20197;-82
2024/01/15 07:57:05;;;;;;;16.97;5.70;;;3.00;99.90;;;;;;7283006;19;20340;-82
2024/01/15 07:59:32;;;;;;;15.63;6.30;;;2.90;99.90;;;;;;7285510;19;20193;-82
2024/01/15 08:01:59;;;;;;;15.23;6.00;;;2.90;99.90;;;;;;7285083;19;20192;-82
2024/01/15 08:04:25;;;;;;;16.47;5.43;;;3.00;99.90;;;;;;7286652;19;20184;-83
2024/01/15 08:06:50;;;;;;;15.73;5.37;;;2.90;99.90;;;;;;7284967;19;20242;-82
2024/01/15 08:09:16;;;;;;;17.17;5.27;;;3.00;99.90;;;;;;7283889;19;20571;-83
2024/01/15 08:11:43;;;;;;;14.73;4.67;;;2.90;99.90;;;;;;7284180;19;20188;-82
2024/01/15 08:14:10;;;;;;;15.43;4.57;;;2.90;99.90;;;;;;7306676;19;20189;-83
2024/01/15 08:16:36;;;;;;;11.73;4.07;;;2.90;99.90;;;;;;7284164;19;20197;-82
2024/01/15 08:19:02;;;;;;;19.60;4.27;;;3.00;99.90;;;;;;7285056;19;20193;-82
2024/01/15 08:21:29;;;;;;;13.13;3.93;;;3.10;99.90;;;;;;7283883;19;20223;-82
2024/01/15 08:24:00;;;;;;;14.03;3.90;;;3.00;99.90;;;;;;7285132;19;20196;-82
2024/01/15 08:26:26;;;;;;;15.77;4.00;;;3.00;99.90;;;;;;7283435;19;20214;-83
2024/01/15 08:28:52;;;;;;;17.47;4.07;;;3.10;99.90;;;;;;7283899;19;20190;-82
2024/01/15 08:31:18;;;;;;;15.33;3.97;;;3.20;99.90;;;;;;7284353;19;20185;-83
2024/01/15 08:33:43;;;;;;;14.37;4.07;;;3.40;99.90;;;;;;7283905;19;20688;-82
2024/01/15 08:36:10;;;;;;;12.63;3.30;;;3.60;99.90;;;;;;7304913;19;20205;-82
2024/01/15 08:38:36;;;;;;;16.30;3.80;;;3.70;99.90;;;;;;7297548;19;20198;-83
2024/01/15 08:41:01;;;;;;;12.33;3.60;;;3.80;99.90;;;;;;7284737;19;20193;-82
2024/01/15 08:43:27;;;;;;;11.20;2.90;;;3.70;99.90;;;;;;7284414;19;20226;-82
2024/01/15 08:45:53;;;;;;;8.37;2.60;;;3.60;99.90;;;;;;7283243;19;20196;-82
2024/01/15 08:48:19;;;;;;;15.50;2.97;;;3.60;99.90;;;;;;7285040;19;20201;-82
2024/01/15 08:50:48;;;;;;;12.07;2.87;;;3.50;99.90;;;;;;7283393;19;20178;-82
2024/01/15 08:53:14;;;;;;;17.13;3.17;;;3.50;99.90;;;;;;7286453;19;20191;-82
2024/01/15 08:55:39;;;;;;;9.43;2.73;;;3.40;99.90;;;;;;7303117;19;20193;-81
2024/01/15 08:58:06;;;;;;;11.10;2.93;;;3.40;99.90;;;;;;7292777;19;20206;-82
2024/01/15 09:00:31;;;;;;;16.97;2.97;;;3.50;99.90;;;;;;7282066;19;20185;-82
2024/01/15 09:02:57;;;;;;;10.60;2.50;;;3.60;99.90;;;;;;7283172;19;20190;-82
2024/01/15 09:05:23;;;;;;;9.17;2.50;;;3.50;99.90;;;;;;7283445;19;20194;-82
2024/01/15 09:07:51;;;;;;;11.83;2.50;;;3.40;99.90;;;;;;7282614;19;20182;-82
2024/01/15 09:10:17;;;;;;;14.77;2.77;;;3.50;99.90;;;;;;7281847;19;20525;-82
2024/01/15 09:12:42;;;;;;;12.33;2.73;;;3.50;99.90;;;;;;7282729;19;20192;-82
2024/01/15 09:15:08;;;;;;;10.27;2.40;;;3.60;99.90;;;;;;7305823;19;20196;-82
2024/01/15 09:17:34;;;;;;;11.07;2.80;;;3.60;99.90;;;;;;7282083;19;20250;-82
2024/01/15 09:20:00;;;;;;;11.67;2.47;;;3.60;99.90;;;;;;7285070;19;20660;-82
2024/01/15 09:22:26;;;;;;;11.77;2.30;;;3.60;99.90;;;;;;7281843;19;20190;-81
2024/01/15 09:24:52;;;;;;;7.73;2.17;;;3.60;99.90;;;;;;7280982;19;20193;-82
2024/01/15 09:27:18;;;;;;;12.23;2.47;;;3.60;99.90;;;;;;7281446;19;20189;-82
2024/01/15 09:29:45;;;;;;;12.70;2.40;;;3.60;99.90;;;;;;7282786;19;20186;-82
2024/01/15 09:32:12;;;;;;;11.87;2.57;;;3.70;99.90;;;;;;7284319;19;20187;-82
2024/01/15 09:34:38;;;;;;;14.93;3.10;;;3.60;99.90;;;;;;7302968;19;20182;-82
2024/01/15 09:37:04;;;;;;;12.10;2.50;;;3.50;99.90;;;;;;7283691;19;20208;-82
2024/01/15 09:39:31;;;;;;;10.73;2.30;;;3.30;99.90;;;;;;7283148;19;20187;-83
2024/01/15 09:41:58;;;;;;;9.30;2.50;;;3.40;99.90;;;;;;7282887;19;20185;-83
2024/01/15 09:44:24;;;;;;;9.73;2.43;;;3.50;99.90;;;;;;7282095;19;20190;-81
2024/01/15 09:46:51;;;;;;;11.73;2.23;;;3.60;99.90;;;;;;7287383;19;20194;-82
2024/01/15 09:49:17;;;;;;;9.77;2.50;;;3.60;99.90;;;;;;7289762;19;20193;-82
2024/01/15 09:51:43;;;;;;;10.17;2.30;;;3.70;99.90;;;;;;7288394;19;20189;-81
2024/01/15 09:54:10;;;;;;;8.90;2.13;;;3.70;99.90;;;;;;7311649;19;20193;-82
2024/01/15 09:56:36;;;;;;;8.97;2.07;;;3.70;99.90;;;;;;7288831;19;20195;-82
2024/01/15 09:59:04;;;;;;;11.77;2.13;;;3.60;99.90;;;;;;7288671;19;20182;-82
2024/01/15 10:01:31;;;;;;;11.33;2.43;;;3.60;99.90;;;;;;7289277;19;20202;-82
2024/01/15 10:03:58;;;;;;;11.20;2.20;;;3.60;99.90;;;;;;7288699;19;20230;-82
2024/01/15 10:06:27;;;;;;;8.37;2.10;;;3.80;99.90;;;;;;7288515;19;20199;-82
2024/01/15 10:08:56;;;;;;;9.20;1.97;;;3.80;99.90;;;;;;7286790;19;20602;-82
2024/01/15 10:11:21;;;;;;;9.30;2.20;;;3.90;99.90;;;;;;7289070;19;20185;-82
2024/01/15 10:13:52;;;;;;;9.10;2.27;;;4.10;99.90;;;;;;7287382;19;20636;-82
2024/01/15 10:16:17;;;;;;;10.23;2.30;;;4.20;99.90;;;;;;7288834;19;20260;-82
2024/01/15 10:18:43;;;;;;;8.47;1.70;;;4.20;99.90;;;;;;7288960;19;20189;-82
2024/01/15 10:21:09;;;;;;;9.13;1.90;;;4.20;99.90;;;;;;7311543;19;20595;-82
2024/01/15 10:23:36;;;;;;;12.27;2.60;;;4.30;99.90;;;;;;7293199;19;20192;-82
2024/01/15 10:26:02;;;;;;;8.53;3.00;;;4.20;99.90;;;;;;7289082;19;20686;-82
2024/01/15 10:28:30;;;;;;;8.07;2.30;;;4.20;99.90;;;;;;7287718;19;20216;-82
2024/01/15 10:30:58;;;;;;;6.13;1.83;;;4.40;99.90;;;;;;7288146;19;20182;-82
2024/01/15 10:33:26;;;;;;;7.57;1.77;;;5.40;99.90;;;;;;7288307;19;20252;-82
2024/01/15 10:35:56;;;;;;;9.80;2.00;;;6.30;99.90;;;;;;7287359;19;20188;-82
2024/01/15 10:38:22;;;;;;;8.27;2.07;;;7.50;99.90;;;;;;7286735;19;20186;-83
2024/01/15 10:40:52;;;;;;;11.40;2.10;;;7.20;99.90;;;;;;7287189;19;20376;-82
2024/01/15 10:43:17;;;;;;;7.77;2.10;;;7.60;99.90;;;;;;7289673;19;20247;-82
2024/01/15 10:45:45;;;;;;;13.83;1.97;;;7.90;99.90;;;;;;7287130;19;20184;-82
2024/01/15 10:48:12;;;;;;;7.63;1.87;;;8.80;99.90;;;;;;7293414;19;20190;-82
2024/01/15 10:50:37;;;;;;;11.33;2.10;;;9.00;99.90;;;;;;7310484;19;20189;-83
2024/01/15 10:53:04;;;;;;;8.10;2.00;;;9.30;99.90;;;;;;7287617;19;20544;-82
2024/01/15 10:55:32;;;;;;;9.97;2.17;;;9.70;99.90;;;;;;7288363;19;20611;-83
2024/01/15 10:57:59;;;;;;;11.90;1.77;;;10.50;99.90;;;;;;7288993;19;20195;-82
2024/01/15 11:00:25;;;;;;;7.73;1.67;;;9.30;99.90;;;;;;7287377;19;20592;-83
2024/01/15 11:02:51;;;;;;;6.27;1.90;;;9.30;99.90;;;;;;7286500;19;20200;-83
2024/01/15 11:05:22;;;;;;;8.53;1.63;;;9.70;99.90;;;;;;7287219;19;20227;-83
2024/01/15 11:07:49;;;;;;;9.47;1.60;;;9.90;99.90;;;;;;7287644;19;20807;-83
2024/01/15 11:10:42;;;;;;;13.17;1.97;;;9.90;99.90;;;;;;7288002;19;20179;-82
2024/01/15 11:13:31;;;;;;;7.50;1.63;;;9.60;99.90;;;;;;7287502;19;20184;-83
2024/01/15 11:16:00;;;;;;;8.33;2.13;;;8.90;99.90;;;;;;7183698;19;2007120;-82
2024/01/15 11:18:50;;;;;;;7.73;1.83;;;8.60;99.90;;;;;;7287058;19;20218;-83
2024/01/15 11:21:16;;;;;;;21.00;7.60;;;8.50;99.90;;;;;;7180535;19;2005941;-82
2024/01/15 11:23:51;;;;;;;7.73;1.57;;;8.70;99.90;;;;;;7288647;19;20655;-82
2024/01/15 11:26:36;;;;;;;16.47;4.40;;;8.40;99.90;;;;;;7285545;19;20192;-83
2024/01/15 11:29:07;;;;;;;9.80;3.20;;;8.80;99.90;;;;;;7285180;19;20295;-83
2024/01/15 11:31:39;;;;;;;9.47;2.80;;;9.90;99.90;;;;;;7285655;19;20253;-83
2024/01/15 11:34:09;;;;;;;9.87;2.00;;;10.00;99.90;;;;;;7286854;19;20199;-83
2024/01/15 11:36:53;;;;;;;10.03;3.20;;;9.80;99.90;;;;;;7285989;19;20207;-83
2024/01/15 11:39:28;;;;;;;8.47;2.10;;;10.00;99.90;;;;;;7179756;19;2004675;-83
2024/01/15 11:42:02;;;;;;;28.53;11.87;;;9.30;99.90;;;;;;7286254;19;20189;-83
2024/01/15 11:44:30;;;;;;;11.53;2.40;;;8.80;99.90;;;;;;7285035;19;20188;-82
2024/01/15 11:47:03;;;;;;;10.97;3.40;;;8.40;99.90;;;;;;7286751;19;20186;-83
2024/01/15 11:49:47;;;;;;;10.53;1.57;;;8.00;99.90;;;;;;7284382;19;20189;-83
2024/01/15 11:52:17;;;;;;;10.13;2.00;;;7.40;99.90;;;;;;7261338;19;20696;-83
2024/01/15 11:54:56;;;;;;;12.07;1.50;;;7.20;99.90;;;;;;7285205;19;20192;-83
2024/01/15 11:57:39;;;;;;;7.67;1.17;;;6.90;99.90;;;;;;7284727;19;20214;-82
2024/01/15 12:00:11;;;;;;;8.63;1.50;;;7.20;99.90;;;;;;7285866;19;20988;-82
2024/01/15 12:02:44;;;;;;;7.53;1.40;;;7.70;99.90;;;;;;7284117;19;20180;-81
2024/01/15 12:05:15;;;;;;;13.40;1.60;;;8.20;99.90;;;;;;7302543;19;20185;-82
2024/01/15 12:07:43;;;;;;;7.90;1.50;;;8.20;99.90;;;;;;7291514;19;20193;-82
2024/01/15 12:10:22;;;;;;;7.30;1.70;;;8.50;99.90;;;;;;7306231;19;20188;-83
2024/01/15 12:12:57;;;;;;;7.00;1.47;;;9.40;99.90;;;;;;7184345;19;2004621;-83
2024/01/15 12:15:25;;;;;;;7.57;1.53;;;9.70;99.90;;;;;;7285111;19;20697;-83
2024/01/15 12:17:51;;;;;;;6.47;1.10;;;10.00;99.90;;;;;;7285224;19;20192;-83
2024/01/15 12:20:18;;;;;;;10.17;1.70;;;9.40;99.90;;;;;;7284683;19;20190;-82
2024/01/15 12:22:44;;;;;;;9.43;1.47;;;9.00;99.90;;;;;;7283516;19;20187;-82
2024/01/15 12:25:10;;;;;;;6.50;1.50;;;9.20;99.90;;;;;;7305550;19;20257;-82
2024/01/15 12:27:36;;;;;;;6.70;1.53;;;9.70;99.90;;;;;;7293261;19;20194;-83
2024/01/15 12:30:02;;;;;;;6.17;1.40;;;9.80;99.90;;;;;;7283989;19;20262;-83
2024/01/15 12:32:29;;;;;;;11.40;1.60;;;9.30;99.90;;;;;;7283690;19;20214;-83
2024/01/15 12:34:55;;;;;;;6.70;1.00;;;9.70;99.90;;;;;;7284337;19;20194;-83
2024/01/15 12:37:21;;;;;;;7.93;1.40;;;10.10;99.90;;;;;;7285943;19;20192;-82
2024/01/15 12:39:48;;;;;;;14.87;3.47;;;9.60;99.90;;;;;;7283000;19;20303;-82
2024/01/15 12:42:16;;;;;;;11.90;2.57;;;9.40;99.90;;;;;;7285083;19;20179;-82